Time;durP1;ratioP1;P1;durP2;ratioP2;P2;SDS_P1;SDS_P2;PMS_P1;PMS_P2;Temp;Humidity;BMP_temperature;BMP_pressure;BME280_temperature;BME280_humidity;BME280_pressure;Samples;Min_cycle;Max_cycle;Signal;HPM_P1;HPM_P2
2021/05/17 00:00:16;;;;;;;;;;;;;;;;;;5032324;28;20313;-70
2021/05/17 00:02:43;;;;;;;;;;;;;;;;;;5029928;28;19925;-70
2021/05/17 00:05:09;;;;;;;;;;;;;;;;;;5023828;28;20008;-70
2021/05/17 00:07:36;;;;;;;;;;;;;;;;;;5031636;28;19932;-70
2021/05/17 00:10:03;;;;;;;;;;;;;;;;;;5030576;28;19979;-70
2021/05/17 00:12:29;;;;;;;;;;;;;;;;;;5032307;28;19965;-70
2021/05/17 00:14:56;;;;;;;;;;;;;;;;;;5031338;28;19978;-70
2021/05/17 00:17:22;;;;;;;;;;;;;;;;;;5027701;28;20023;-69
2021/05/17 00:19:49;;;;;;;;;;;;;;;;;;5030053;28;19986;-69
2021/05/17 00:22:15;;;;;;;;;;;;;;;;;;5030976;28;19925;-69
2021/05/17 00:24:42;;;;;;;;;;;;;;;;;;5024152;28;20020;-71
2021/05/17 00:27:08;;;;;;;;;;;;;;;;;;5029817;28;19925;-71
2021/05/17 00:29:35;;;;;;;;;;;;;;;;;;5031218;28;19931;-71
2021/05/17 00:32:01;;;;;;;;;;;;;;;;;;5031772;28;19964;-70
2021/05/17 00:34:27;;;;;;;;;;;;;;;;;;5022992;28;19933;-71
2021/05/17 00:36:54;;;;;;;;;;;;;;;;;;5031112;28;19929;-71
2021/05/17 00:39:20;;;;;;;;;;;;;;;;;;5029863;28;19944;-71
2021/05/17 00:41:47;;;;;;;;;;;;;;;;;;5031521;28;20332;-70
2021/05/17 00:44:13;;;;;;;;;;;;;;;;;;5031639;28;20001;-70
2021/05/17 00:46:40;;;;;;;;;;;;;;;;;;5025348;28;20470;-70
2021/05/17 00:49:08;;;;;;;;;;;;;;;;;;5029386;28;20403;-70
2021/05/17 00:51:34;;;;;;;;;;;;;;;;;;5030836;28;19925;-70
2021/05/17 00:54:01;;;;;;;;;;;;;;;;;;5031388;28;20011;-70
2021/05/17 00:56:27;;;;;;;;;;;;;;;;;;5028563;28;20354;-69
2021/05/17 00:58:54;;;;;;;;;;;;;;;;;;5029991;28;19931;-70
2021/05/17 01:01:20;;;;;;;;;;;;;;;;;;5030398;28;19996;-70
2021/05/17 01:03:47;;;;;;;;;;;;;;;;;;5029440;28;19925;-70
2021/05/17 01:06:13;;;;;;;;;;;;;;;;;;5030069;28;20024;-70
2021/05/17 01:08:40;;;;;;;;;;;;;;;;;;5029921;28;20361;-70
2021/05/17 01:11:06;;;;;;;;;;;;;;;;;;5029101;28;19969;-70
2021/05/17 01:13:33;;;;;;;;;;;;;;;;;;5030575;28;20316;-70
2021/05/17 01:15:59;;;;;;;;;;;;;;;;;;5021760;28;19933;-70
2021/05/17 01:18:26;;;;;;;;;;;;;;;;;;5028706;28;19929;-70
2021/05/17 01:20:52;;;;;;;;;;;;;;;;;;5030286;28;20025;-70
2021/05/17 01:23:31;;;;;;;;;;;;;;;;;;5023507;28;20435;-71
2021/05/17 01:25:58;;;;;;;;;;;;;;;;;;5030327;28;20011;-70
2021/05/17 01:28:25;;;;;;;;;;;;;;;;;;5030000;28;19968;-70
2021/05/17 01:30:51;;;;;;;;;;;;;;;;;;5030890;28;20016;-70
2021/05/17 01:33:18;;;;;;;;;;;;;;;;;;5030139;28;19936;-70
2021/05/17 01:35:44;;;;;;;;;;;;;;;;;;5041173;28;19929;-70
2021/05/17 01:38:11;;;;;;;;;;;;;;;;;;5040336;28;19925;-69
2021/05/17 01:40:37;;;;;;;;;;;;;;;;;;5042764;28;20283;-69
2021/05/17 01:43:04;;;;;;;;;;;;;;;;;;5040026;28;19925;-69
2021/05/17 01:45:30;;;;;;;;;;;;;;;;;;5036546;28;19925;-69
2021/05/17 01:47:57;;;;;;;;;;;;;;;;;;5034801;28;20386;-69
2021/05/17 01:50:23;;;;;;;;;;;;;;;;;;5043789;28;19925;-69
2021/05/17 01:52:49;;;;;;;;;;;;;;;;;;5045484;28;19931;-69
2021/05/17 01:55:16;;;;;;;;;;;;;;;;;;5041279;28;19997;-69
2021/05/17 01:57:42;;;;;;;;;;;;;;;;;;5030443;28;19925;-70
2021/05/17 02:00:09;;;;;;;;;;;;;;;;;;5029190;28;19925;-69
2021/05/17 02:02:35;;;;;;;;;;;;;;;;;;5029732;28;19940;-70
2021/05/17 02:05:02;;;;;;;;;;;;;;;;;;5029321;28;20324;-69
2021/05/17 02:07:28;;;;;;;;;;;;;;;;;;5028993;28;19931;-70
2021/05/17 02:09:55;;;;;;;;;;;;;;;;;;5029434;28;19948;-70
2021/05/17 02:12:21;;;;;;;;;;;;;;;;;;5027040;28;19929;-70
2021/05/17 02:14:48;;;;;;;;;;;;;;;;;;5030093;28;20269;-70
2021/05/17 02:17:14;;;;;;;;;;;;;;;;;;5033319;28;19929;-70
2021/05/17 02:19:41;;;;;;;;;;;;;;;;;;5024424;28;19955;-70
2021/05/17 02:22:07;;;;;;;;;;;;;;;;;;5034669;28;19925;-70
2021/05/17 02:24:34;;;;;;;;;;;;;;;;;;5035295;28;19925;-70
2021/05/17 02:27:00;;;;;;;;;;;;;;;;;;5033473;28;19932;-70
2021/05/17 02:29:26;;;;;;;;;;;;;;;;;;5032277;28;19986;-70
2021/05/17 02:31:53;;;;;;;;;;;;;;;;;;5026988;28;19929;-70
2021/05/17 02:34:19;;;;;;;;;;;;;;;;;;5034064;28;19925;-70
2021/05/17 02:36:46;;;;;;;;;;;;;;;;;;5031753;28;20397;-70
2021/05/17 02:39:12;;;;;;;;;;;;;;;;;;5034856;28;20381;-70
2021/05/17 02:41:39;;;;;;;;;;;;;;;;;;5033147;28;20372;-70
2021/05/17 02:44:05;;;;;;;;;;;;;;;;;;5033136;28;20443;-70
2021/05/17 02:46:32;;;;;;;;;;;;;;;;;;5032977;28;19929;-70
2021/05/17 02:48:58;;;;;;;;;;;;;;;;;;5027866;28;19929;-71
2021/05/17 02:51:24;;;;;;;;;;;;;;;;;;5030777;28;19925;-71
2021/05/17 02:53:51;;;;;;;;;;;;;;;;;;5033259;28;19936;-70
2021/05/17 02:56:17;;;;;;;;;;;;;;;;;;5032044;28;19929;-71
2021/05/17 02:58:44;;;;;;;;;;;;;;;;;;5032089;28;19929;-70
2021/05/17 03:01:10;;;;;;;;;;;;;;;;;;5032517;28;20407;-71
2021/05/17 03:03:37;;;;;;;;;;;;;;;;;;5032341;28;20320;-70
2021/05/17 03:06:03;;;;;;;;;;;;;;;;;;5031255;28;20024;-70
2021/05/17 03:08:30;;;;;;;;;;;;;;;;;;5028445;28;19979;-70
2021/05/17 03:10:56;;;;;;;;;;;;;;;;;;5032434;28;20400;-70
2021/05/17 03:13:22;;;;;;;;;;;;;;;;;;5032528;28;20385;-69
2021/05/17 03:15:49;;;;;;;;;;;;;;;;;;5033151;28;19940;-69
2021/05/17 03:18:15;;;;;;;;;;;;;;;;;;5031429;28;20297;-69
2021/05/17 03:20:42;;;;;;;;;;;;;;;;;;5032953;28;20028;-70
2021/05/17 03:23:08;;;;;;;;;;;;;;;;;;5032364;28;20356;-70
2021/05/17 03:25:35;;;;;;;;;;;;;;;;;;5029639;28;19932;-70
2021/05/17 03:28:01;;;;;;;;;;;;;;;;;;5089789;22;19925;-68
2021/05/17 03:30:28;;;;;;;;;;;;;;;;;;5074649;28;19965;-68
2021/05/17 03:32:54;;;;;;;;;;;;;;;;;;5074289;28;19962;-67
2021/05/17 03:35:21;;;;;;;;;;;;;;;;;;5075623;28;19979;-67
2021/05/17 03:37:47;;;;;;;;;;;;;;;;;;5071384;28;19947;-68
2021/05/17 03:40:13;;;;;;;;;;;;;;;;;;5068460;28;20369;-67
2021/05/17 03:42:40;;;;;;;;;;;;;;;;;;5063208;28;20418;-68
2021/05/17 03:45:06;;;;;;;;;;;;;;;;;;5071051;28;20408;-68
2021/05/17 03:47:33;;;;;;;;;;;;;;;;;;5067501;28;19924;-68
2021/05/17 03:49:59;;;;;;;;;;;;;;;;;;5060893;28;20364;-68
2021/05/17 03:52:26;;;;;;;;;;;;;;;;;;5066078;28;20010;-67
2021/05/17 03:54:52;;;;;;;;;;;;;;;;;;5066545;28;19932;-68
2021/05/17 03:57:18;;;;;;;;;;;;;;;;;;5057170;28;19935;-68
2021/05/17 03:59:45;;;;;;;;;;;;;;;;;;5056558;28;19924;-67
2021/05/17 04:02:14;;;;;;;;;;;;;;;;;;5070131;28;19924;-68
2021/05/17 04:04:44;;;;;;;;;;;;;;;;;;5063243;28;19924;-67
2021/05/17 04:15:23;;;;;;;;;;;;;;;;;;5064022;28;19943;-67
2021/05/17 04:17:50;;;;;;;;;;;;;;;;;;5067117;28;19931;-66
2021/05/17 04:20:16;;;;;;;;;;;;;;;;;;5055056;28;20358;-67
2021/05/17 04:22:43;;;;;;;;;;;;;;;;;;5069131;28;19932;-69
2021/05/17 04:25:09;;;;;;;;;;;;;;;;;;5064097;28;20040;-67
2021/05/17 04:27:36;;;;;;;;;;;;;;;;;;5071318;28;19925;-66
2021/05/17 04:30:02;;;;;;;;;;;;;;;;;;5067999;28;19975;-67
2021/05/17 04:32:29;;;;;;;;;;;;;;;;;;5057405;28;19935;-67
2021/05/17 04:34:55;;;;;;;;;;;;;;;;;;5068100;28;19928;-67
2021/05/17 04:37:21;;;;;;;;;;;;;;;;;;5060972;28;19932;-67
2021/05/17 04:39:48;;;;;;;;;;;;;;;;;;5052770;28;19932;-67
2021/05/17 04:42:14;;;;;;;;;;;;;;;;;;5056197;28;19931;-67
2021/05/17 04:44:41;;;;;;;;;;;;;;;;;;5063516;28;20363;-67
2021/05/17 04:47:07;;;;;;;;;;;;;;;;;;5067774;28;20296;-67
2021/05/17 04:49:34;;;;;;;;;;;;;;;;;;5063381;28;19977;-68
2021/05/17 04:52:00;;;;;;;;;;;;;;;;;;5069079;28;20346;-67
2021/05/17 04:54:27;;;;;;;;;;;;;;;;;;5072414;28;20014;-67
2021/05/17 04:56:53;;;;;;;;;;;;;;;;;;5057384;28;19932;-67
2021/05/17 04:59:20;;;;;;;;;;;;;;;;;;5062097;28;20360;-67
2021/05/17 05:01:46;;;;;;;;;;;;;;;;;;5062204;28;19978;-67
2021/05/17 05:04:13;;;;;;;;;;;;;;;;;;5065774;28;19936;-67
2021/05/17 05:06:39;;;;;;;;;;;;;;;;;;5062299;28;19925;-67
2021/05/17 05:09:05;;;;;;;;;;;;;;;;;;5058129;28;20404;-67
2021/05/17 05:11:32;;;;;;;;;;;;;;;;;;5057674;28;20286;-68
2021/05/17 05:13:59;;;;;;;;;;;;;;;;;;5056329;28;20332;-68
2021/05/17 05:16:25;;;;;;;;;;;;;;;;;;5061556;28;20016;-68
2021/05/17 05:18:51;;;;;;;;;;;;;;;;;;5062288;28;19925;-68
2021/05/17 05:21:18;;;;;;;;;;;;;;;;;;5067184;28;19931;-68
2021/05/17 05:23:46;;;;;;;;;;;;;;;;;;5062670;28;20253;-68
2021/05/17 05:29:03;;;;;;;;;;;;;;;;;;5066961;28;19973;-67
2021/05/17 05:31:33;;;;;;;;;;;;;;;;;;5060411;28;19924;-69
2021/05/17 05:34:00;;;;;;;;;;;;;;;;;;5062069;28;19972;-67
2021/05/17 05:36:28;;;;;;;;;;;;;;;;;;5053499;28;20383;-67
2021/05/17 05:38:54;;;;;;;;;;;;;;;;;;5066991;28;19930;-68
2021/05/17 05:41:21;;;;;;;;;;;;;;;;;;5066015;28;19924;-67
2021/05/17 05:43:47;;;;;;;;;;;;;;;;;;5061695;28;19931;-67
2021/05/17 05:46:14;;;;;;;;;;;;;;;;;;5065318;28;20270;-68
2021/05/17 05:48:47;;;;;;;;;;;;;;;;;;5056821;28;19931;-68
2021/05/17 05:51:14;;;;;;;;;;;;;;;;;;5063934;28;19968;-68
2021/05/17 05:53:40;;;;;;;;;;;;;;;;;;5064528;28;19931;-68
2021/05/17 05:56:07;;;;;;;;;;;;;;;;;;5069083;28;20011;-68
2021/05/17 05:58:33;;;;;;;;;;;;;;;;;;5068080;28;19931;-68
2021/05/17 06:01:00;;;;;;;;;;;;;;;;;;5064648;28;20020;-69
2021/05/17 06:03:26;;;;;;;;;;;;;;;;;;5071114;28;20428;-67
2021/05/17 06:05:53;;;;;;;;;;;;;;;;;;5074570;28;19930;-66
2021/05/17 06:08:19;;;;;;;;;;;;;;;;;;5074705;28;20410;-68
2021/05/17 06:10:46;;;;;;;;;;;;;;;;;;5063412;28;19941;-67
2021/05/17 06:13:12;;;;;;;;;;;;;;;;;;5060310;28;20571;-68
2021/05/17 06:15:40;;;;;;;;;;;;;;;;;;5073710;28;19932;-68
2021/05/17 06:18:07;;;;;;;;;;;;;;;;;;5059911;28;19925;-67
2021/05/17 06:20:33;;;;;;;;;;;;;;;;;;5072407;28;20397;-67
2021/05/17 06:23:00;;;;;;;;;;;;;;;;;;5073435;28;19924;-68
2021/05/17 06:25:27;;;;;;;;;;;;;;;;;;5066044;28;20348;-68
2021/05/17 06:27:53;;;;;;;;;;;;;;;;;;5064579;28;19931;-67
2021/05/17 06:30:21;;;;;;;;;;;;;;;;;;5071094;28;19924;-68
2021/05/17 06:32:48;;;;;;;;;;;;;;;;;;5063557;28;19924;-67
2021/05/17 06:35:16;;;;;;;;;;;;;;;;;;5067303;28;19932;-66
2021/05/17 06:37:42;;;;;;;;;;;;;;;;;;5056957;28;19925;-66
2021/05/17 06:40:12;;;;;;;;;;;;;;;;;;5063598;28;19924;-66
2021/05/17 06:42:38;;;;;;;;;;;;;;;;;;5074451;28;19983;-66
2021/05/17 06:45:05;;;;;;;;;;;;;;;;;;5066689;28;19926;-68
2021/05/17 06:47:32;;;;;;;;;;;;;;;;;;5071593;28;20413;-66
2021/05/17 06:49:59;;;;;;;;;;;;;;;;;;5071166;28;19928;-66
2021/05/17 06:52:26;;;;;;;;;;;;;;;;;;5072633;28;19931;-66
2021/05/17 06:54:57;;;;;;;;;;;;;;;;;;5064526;28;19931;-66
2021/05/17 06:57:28;;;;;;;;;;;;;;;;;;5069161;28;19960;-66
2021/05/17 06:59:58;;;;;;;;;;;;;;;;;;5067409;28;19932;-66
2021/05/17 07:02:25;;;;;;;;;;;;;;;;;;5079416;28;20372;-66
2021/05/17 07:04:51;;;;;;;;;;;;;;;;;;5068833;28;19992;-66
2021/05/17 07:07:22;;;;;;;;;;;;;;;;;;5066882;28;19969;-66
2021/05/17 07:12:33;;;;;;;;;;;;;;;;;;5064711;28;20561;-66
2021/05/17 07:15:02;;;;;;;;;;;;;;;;;;5074602;28;19933;-66
2021/05/17 07:17:28;;;;;;;;;;;;;;;;;;5077076;28;19936;-67
2021/05/17 07:19:55;;;;;;;;;;;;;;;;;;5068891;28;19964;-65
2021/05/17 07:25:06;;;;;;;;;;;;;;;;;;5069258;28;19923;-67
2021/05/17 07:27:33;;;;;;;;;;;;;;;;;;5072001;28;19925;-67
2021/05/17 07:29:59;;;;;;;;;;;;;;;;;;5073866;28;19924;-67
2021/05/17 07:32:26;;;;;;;;;;;;;;;;;;5065008;28;20456;-67
2021/05/17 07:34:52;;;;;;;;;;;;;;;;;;5069025;28;19965;-66
2021/05/17 07:37:20;;;;;;;;;;;;;;;;;;5074375;28;20571;-66
2021/05/17 07:39:47;;;;;;;;;;;;;;;;;;5058415;28;20289;-66
2021/05/17 07:42:13;;;;;;;;;;;;;;;;;;5062664;28;19933;-67
2021/05/17 07:44:40;;;;;;;;;;;;;;;;;;5063121;28;20318;-68
2021/05/17 07:47:06;;;;;;;;;;;;;;;;;;5061348;28;19931;-68
2021/05/17 07:49:38;;;;;;;;;;;;;;;;;;5065446;28;20345;-65
2021/05/17 07:52:04;;;;;;;;;;;;;;;;;;5065844;28;20025;-67
2021/05/17 07:54:31;;;;;;;;;;;;;;;;;;5056957;28;20037;-66
2021/05/17 07:56:57;;;;;;;;;;;;;;;;;;5066516;28;20015;-66
2021/05/17 07:59:27;;;;;;;;;;;;;;;;;;5054071;28;19986;-67
2021/05/17 08:01:55;;;;;;;;;;;;;;;;;;5065202;28;19928;-66
2021/05/17 08:04:21;;;;;;;;;;;;;;;;;;5059497;28;20241;-67
2021/05/17 08:06:48;;;;;;;;;;;;;;;;;;5057284;28;20015;-67
2021/05/17 08:09:15;;;;;;;;;;;;;;;;;;5068933;28;19924;-67
2021/05/17 08:11:43;;;;;;;;;;;;;;;;;;5058730;28;20867;-67
2021/05/17 08:14:09;;;;;;;;;;;;;;;;;;5058379;28;19931;-68
2021/05/17 08:16:36;;;;;;;;;;;;;;;;;;5066445;28;19924;-66
2021/05/17 08:19:02;;;;;;;;;;;;;;;;;;5064525;28;20008;-67
2021/05/17 08:21:29;;;;;;;;;;;;;;;;;;5061892;28;20396;-67
2021/05/17 08:23:56;;;;;;;;;;;;;;;;;;5057885;28;19925;-67
2021/05/17 08:26:23;;;;;;;;;;;;;;;;;;5067618;28;20493;-66
2021/05/17 08:28:49;;;;;;;;;;;;;;;;;;5071146;28;20019;-66
2021/05/17 08:31:18;;;;;;;;;;;;;;;;;;5069693;28;19934;-66
2021/05/17 08:33:45;;;;;;;;;;;;;;;;;;5062857;28;20046;-67
2021/05/17 08:36:11;;;;;;;;;;;;;;;;;;5068141;28;20019;-67
2021/05/17 08:38:38;;;;;;;;;;;;;;;;;;5060176;28;20343;-68
2021/05/17 08:41:04;;;;;;;;;;;;;;;;;;5068232;28;19924;-67
2021/05/17 08:43:31;;;;;;;;;;;;;;;;;;5064077;28;19925;-68
2021/05/17 08:45:57;;;;;;;;;;;;;;;;;;5064770;28;19936;-67
2021/05/17 08:48:24;;;;;;;;;;;;;;;;;;5061524;28;20007;-68
2021/05/17 08:50:50;;;;;;;;;;;;;;;;;;5069516;28;20067;-66
2021/05/17 08:53:17;;;;;;;;;;;;;;;;;;5060337;28;19931;-66
2021/05/17 08:55:43;;;;;;;;;;;;;;;;;;5062618;28;19962;-65
2021/05/17 08:58:10;;;;;;;;;;;;;;;;;;5060523;28;20013;-67
2021/05/17 09:00:36;;;;;;;;;;;;;;;;;;5070113;28;20018;-67
2021/05/17 09:03:03;;;;;;;;;;;;;;;;;;5054323;28;20430;-67
2021/05/17 09:05:31;;;;;;;;;;;;;;;;;;5061341;28;19928;-67
2021/05/17 09:07:58;;;;;;;;;;;;;;;;;;5057039;28;20544;-67
2021/05/17 09:10:25;;;;;;;;;;;;;;;;;;5060987;28;19924;-67
2021/05/17 09:12:52;;;;;;;;;;;;;;;;;;5056778;28;19932;-68
2021/05/17 09:15:18;;;;;;;;;;;;;;;;;;5059926;28;19932;-67
2021/05/17 09:17:45;;;;;;;;;;;;;;;;;;5061357;28;19959;-67
2021/05/17 09:20:11;;;;;;;;;;;;;;;;;;5060881;28;19947;-68
2021/05/17 09:22:38;;;;;;;;;;;;;;;;;;5060393;28;19939;-67
2021/05/17 09:25:04;;;;;;;;;;;;;;;;;;5061190;28;19928;-66
2021/05/17 09:27:31;;;;;;;;;;;;;;;;;;5082702;22;19931;-69
2021/05/17 09:29:57;;;;;;;;;;;;;;;;;;5043092;28;19976;-71
2021/05/17 09:32:25;;;;;;;;;;;;;;;;;;5044944;28;19925;-69
2021/05/17 09:34:51;;;;;;;;;;;;;;;;;;5042079;28;19933;-71
2021/05/17 09:37:18;;;;;;;;;;;;;;;;;;5039816;28;19935;-73
2021/05/17 09:39:44;;;;;;;;;;;;;;;;;;5044860;28;19932;-71
2021/05/17 09:42:11;;;;;;;;;;;;;;;;;;5042162;28;20395;-72
2021/05/17 09:44:40;;;;;;;;;;;;;;;;;;5039379;28;19929;-70
2021/05/17 09:47:12;;;;;;;;;;;;;;;;;;5042090;28;20023;-70
2021/05/17 09:49:39;;;;;;;;;;;;;;;;;;5045385;28;19932;-70
2021/05/17 09:52:05;;;;;;;;;;;;;;;;;;5041881;28;19936;-69
2021/05/17 09:54:32;;;;;;;;;;;;;;;;;;5042970;28;24420;-70
2021/05/17 09:56:58;;;;;;;;;;;;;;;;;;5042566;28;20066;-70
2021/05/17 09:59:25;;;;;;;;;;;;;;;;;;5044938;28;20027;-70
2021/05/17 10:01:51;;;;;;;;;;;;;;;;;;5043072;28;19925;-70
2021/05/17 10:04:18;;;;;;;;;;;;;;;;;;5044722;28;19933;-74
2021/05/17 10:06:44;;;;;;;;;;;;;;;;;;5042135;28;19970;-71
2021/05/17 10:09:11;;;;;;;;;;;;;;;;;;5048333;28;19925;-71
2021/05/17 10:11:37;;;;;;;;;;;;;;;;;;5045209;28;19931;-70
2021/05/17 10:14:03;;;;;;;;;;;;;;;;;;5041250;28;20468;-72
2021/05/17 10:16:30;;;;;;;;;;;;;;;;;;5037139;28;20046;-71
2021/05/17 10:18:56;;;;;;;;;;;;;;;;;;5048235;28;19925;-69
2021/05/17 10:21:23;;;;;;;;;;;;;;;;;;5047070;28;19925;-70
2021/05/17 10:23:50;;;;;;;;;;;;;;;;;;5048977;28;20027;-71
2021/05/17 10:26:17;;;;;;;;;;;;;;;;;;5043093;28;19925;-71
2021/05/17 10:28:43;;;;;;;;;;;;;;;;;;5047297;28;19971;-71
2021/05/17 10:31:10;;;;;;;;;;;;;;;;;;5043931;28;19937;-71
2021/05/17 10:33:37;;;;;;;;;;;;;;;;;;5047627;28;20381;-72
2021/05/17 10:36:05;;;;;;;;;;;;;;;;;;5042914;28;19958;-72
2021/05/17 10:38:36;;;;;;;;;;;;;;;;;;5045911;28;19968;-70
2021/05/17 10:41:03;;;;;;;;;;;;;;;;;;5047970;28;19924;-70
2021/05/17 10:43:36;;;;;;;;;;;;;;;;;;5042712;28;20324;-69
2021/05/17 10:48:48;;;;;;;;;;;;;;;;;;5050137;28;19920;-71
2021/05/17 10:51:16;;;;;;;;;;;;;;;;;;5048957;28;19929;-71
2021/05/17 10:53:42;;;;;;;;;;;;;;;;;;5051567;28;19929;-71
2021/05/17 10:56:09;;;;;;;;;;;;;;;;;;5040358;28;19925;-68
2021/05/17 11:01:16;;;;;;;;;;;;;;;;;;5050275;28;20385;-71
2021/05/17 11:03:42;;;;;;;;;;;;;;;;;;5051218;28;19925;-72
2021/05/17 11:06:09;;;;;;;;;;;;;;;;;;5044283;28;20003;-69
2021/05/17 11:08:35;;;;;;;;;;;;;;;;;;5050644;28;20449;-73
2021/05/17 11:11:03;;;;;;;;;;;;;;;;;;5064662;28;19924;-72
2021/05/17 11:13:30;;;;;;;;;;;;;;;;;;5061907;28;19925;-71
2021/05/17 11:15:57;;;;;;;;;;;;;;;;;;5055181;28;19960;-71
2021/05/17 11:18:23;;;;;;;;;;;;;;;;;;5045367;28;20603;-71
2021/05/17 11:20:50;;;;;;;;;;;;;;;;;;5045203;28;19933;-72
2021/05/17 11:23:17;;;;;;;;;;;;;;;;;;5042726;28;20371;-70
2021/05/17 11:25:43;;;;;;;;;;;;;;;;;;5048965;28;19943;-71
2021/05/17 11:28:10;;;;;;;;;;;;;;;;;;5047617;28;20284;-72
2021/05/17 11:30:37;;;;;;;;;;;;;;;;;;5047663;28;19948;-74
2021/05/17 11:33:03;;;;;;;;;;;;;;;;;;5050345;28;19932;-71
2021/05/17 11:35:30;;;;;;;;;;;;;;;;;;5048747;28;20342;-72
2021/05/17 11:37:56;;;;;;;;;;;;;;;;;;5047840;28;19961;-70
2021/05/17 11:40:23;;;;;;;;;;;;;;;;;;5051692;28;20389;-72
2021/05/17 11:42:49;;;;;;;;;;;;;;;;;;5044459;28;19929;-72
2021/05/17 11:45:23;;;;;;;;;;;;;;;;;;5042490;28;19999;-73
2021/05/17 11:47:49;;;;;;;;;;;;;;;;;;5045377;28;20015;-73
2021/05/17 11:50:16;;;;;;;;;;;;;;;;;;5042885;28;19929;-73
2021/05/17 11:52:42;;;;;;;;;;;;;;;;;;5043069;28;19924;-73
2021/05/17 11:55:10;;;;;;;;;;;;;;;;;;5039794;28;19932;-73
2021/05/17 11:57:36;;;;;;;;;;;;;;;;;;5045053;28;20311;-71
2021/05/17 12:00:03;;;;;;;;;;;;;;;;;;5046959;28;19932;-73
2021/05/17 12:02:29;;;;;;;;;;;;;;;;;;5045237;28;20015;-72
2021/05/17 12:04:56;;;;;;;;;;;;;;;;;;5045623;28;19940;-72
2021/05/17 12:07:22;;;;;;;;;;;;;;;;;;5044344;28;19925;-72
2021/05/17 12:09:49;;;;;;;;;;;;;;;;;;5046284;28;20316;-72
2021/05/17 12:12:15;;;;;;;;;;;;;;;;;;5043037;28;19935;-72
2021/05/17 12:14:42;;;;;;;;;;;;;;;;;;5041371;28;20024;-72
2021/05/17 12:17:08;;;;;;;;;;;;;;;;;;5043152;28;20012;-72
2021/05/17 12:19:35;;;;;;;;;;;;;;;;;;5040066;28;20012;-73
2021/05/17 12:22:01;;;;;;;;;;;;;;;;;;5057332;28;19986;-70
2021/05/17 12:24:28;;;;;;;;;;;;;;;;;;5054609;28;19964;-70
2021/05/17 12:26:54;;;;;;;;;;;;;;;;;;5054581;28;19925;-69
2021/05/17 12:29:21;;;;;;;;;;;;;;;;;;5057544;28;20653;-73
2021/05/17 12:31:47;;;;;;;;;;;;;;;;;;5052660;28;19915;-69
2021/05/17 12:34:14;;;;;;;;;;;;;;;;;;5063478;28;19933;-70
2021/05/17 12:36:41;;;;;;;;;;;;;;;;;;5059794;28;19988;-70
2021/05/17 12:39:08;;;;;;;;;;;;;;;;;;5062666;28;19993;-70
2021/05/17 12:41:34;;;;;;;;;;;;;;;;;;5045848;28;19967;-71
2021/05/17 12:44:01;;;;;;;;;;;;;;;;;;5043913;28;20002;-72
2021/05/17 12:46:27;;;;;;;;;;;;;;;;;;5041639;28;19925;-73
2021/05/17 12:48:54;;;;;;;;;;;;;;;;;;5046959;28;19924;-71
2021/05/17 12:51:22;;;;;;;;;;;;;;;;;;5044390;28;20342;-74
2021/05/17 12:53:49;;;;;;;;;;;;;;;;;;5045368;28;19925;-71
2021/05/17 12:56:16;;;;;;;;;;;;;;;;;;5040787;28;20033;-72
2021/05/17 12:58:43;;;;;;;;;;;;;;;;;;5043245;28;19929;-71
2021/05/17 13:01:09;;;;;;;;;;;;;;;;;;5044726;28;20024;-72
2021/05/17 13:03:36;;;;;;;;;;;;;;;;;;5043012;28;19936;-73
2021/05/17 13:06:02;;;;;;;;;;;;;;;;;;5037655;28;19925;-69
2021/05/17 13:08:29;;;;;;;;;;;;;;;;;;5044036;28;20012;-71
2021/05/17 13:10:55;;;;;;;;;;;;;;;;;;5044930;28;19925;-71
2021/05/17 13:13:22;;;;;;;;;;;;;;;;;;5042415;28;19932;-72
2021/05/17 13:15:48;;;;;;;;;;;;;;;;;;5042112;28;19971;-72
2021/05/17 13:18:15;;;;;;;;;;;;;;;;;;5045186;28;19928;-74
2021/05/17 13:20:42;;;;;;;;;;;;;;;;;;5042651;28;19931;-73
2021/05/17 13:23:31;;;;;;;;;;;;;;;;;;5044095;28;19925;-74
2021/05/17 13:31:23;;;;;;;;;;;;;;;;;;5044228;28;19920;-72
2021/05/17 13:33:52;;;;;;;;;;;;;;;;;;5042580;28;19974;-71
2021/05/17 13:36:19;;;;;;;;;;;;;;;;;;5039524;28;20381;-72
2021/05/17 13:38:49;;;;;;;;;;;;;;;;;;5045502;28;20406;-71
2021/05/17 13:41:15;;;;;;;;;;;;;;;;;;5041307;28;19939;-71
2021/05/17 13:43:42;;;;;;;;;;;;;;;;;;5046286;28;19925;-71
2021/05/17 13:46:09;;;;;;;;;;;;;;;;;;5043116;28;19924;-69
2021/05/17 13:48:35;;;;;;;;;;;;;;;;;;5039295;28;19952;-70
2021/05/17 13:51:14;;;;;;;;;;;;;;;;;;5044558;28;19929;-70
2021/05/17 13:53:40;;;;;;;;;;;;;;;;;;5045223;28;20339;-71
2021/05/17 13:56:07;;;;;;;;;;;;;;;;;;5046624;28;19932;-71
2021/05/17 13:58:33;;;;;;;;;;;;;;;;;;5042550;28;20003;-71
2021/05/17 14:01:00;;;;;;;;;;;;;;;;;;5042893;28;20448;-71
2021/05/17 14:03:27;;;;;;;;;;;;;;;;;;5047421;28;19979;-72
2021/05/17 14:05:54;;;;;;;;;;;;;;;;;;5041609;28;20346;-71
2021/05/17 14:08:20;;;;;;;;;;;;;;;;;;5045900;28;19929;-70
2021/05/17 14:10:47;;;;;;;;;;;;;;;;;;5041909;28;19929;-70
2021/05/17 14:13:13;;;;;;;;;;;;;;;;;;5044265;28;20393;-69
2021/05/17 14:15:40;;;;;;;;;;;;;;;;;;5042680;28;19929;-70
2021/05/17 14:18:06;;;;;;;;;;;;;;;;;;5051468;28;19929;-72
2021/05/17 14:20:33;;;;;;;;;;;;;;;;;;5043726;28;19925;-70
2021/05/17 14:22:59;;;;;;;;;;;;;;;;;;5048077;28;20449;-72
2021/05/17 14:25:26;;;;;;;;;;;;;;;;;;5042504;28;19925;-72
2021/05/17 14:27:52;;;;;;;;;;;;;;;;;;5044845;28;20027;-71
2021/05/17 14:30:21;;;;;;;;;;;;;;;;;;5047635;28;20028;-72
2021/05/17 14:32:48;;;;;;;;;;;;;;;;;;5047940;28;19944;-72
2021/05/17 14:35:14;;;;;;;;;;;;;;;;;;5040756;28;19924;-71
2021/05/17 14:37:42;;;;;;;;;;;;;;;;;;5046767;28;19964;-72
2021/05/17 14:40:08;;;;;;;;;;;;;;;;;;5044265;28;19932;-70
2021/05/17 14:42:42;;;;;;;;;;;;;;;;;;5042849;28;19925;-70
2021/05/17 14:45:08;;;;;;;;;;;;;;;;;;5043798;28;20057;-70
2021/05/17 14:47:35;;;;;;;;;;;;;;;;;;5043745;28;19940;-70
2021/05/17 14:50:02;;;;;;;;;;;;;;;;;;5044654;28;19978;-71
2021/05/17 14:52:29;;;;;;;;;;;;;;;;;;5046654;28;19978;-72
2021/05/17 14:54:55;;;;;;;;;;;;;;;;;;5045401;28;19925;-71
2021/05/17 14:57:22;;;;;;;;;;;;;;;;;;5045648;28;20393;-70
2021/05/17 14:59:49;;;;;;;;;;;;;;;;;;5050477;28;20351;-71
2021/05/17 15:02:15;;;;;;;;;;;;;;;;;;5053430;28;20392;-70
2021/05/17 15:04:42;;;;;;;;;;;;;;;;;;5051646;28;20060;-71
2021/05/17 15:07:08;;;;;;;;;;;;;;;;;;5049277;28;19933;-72
2021/05/17 15:09:35;;;;;;;;;;;;;;;;;;5050793;28;19978;-72
2021/05/17 15:12:01;;;;;;;;;;;;;;;;;;5047501;28;19924;-71
2021/05/17 15:14:28;;;;;;;;;;;;;;;;;;5050813;28;20023;-70
2021/05/17 15:16:54;;;;;;;;;;;;;;;;;;5047507;28;19971;-69
2021/05/17 15:19:21;;;;;;;;;;;;;;;;;;5047134;28;20316;-69
2021/05/17 15:21:47;;;;;;;;;;;;;;;;;;5047928;28;20115;-69
2021/05/17 15:24:14;;;;;;;;;;;;;;;;;;5044543;28;19925;-68
2021/05/17 15:26:43;;;;;;;;;;;;;;;;;;5046954;28;20312;-69
2021/05/17 15:29:10;;;;;;;;;;;;;;;;;;5044501;28;20297;-69
2021/05/17 15:31:37;;;;;;;;;;;;;;;;;;5045782;28;20948;-68
2021/05/17 15:34:04;;;;;;;;;;;;;;;;;;5049729;28;20381;-72
2021/05/17 15:36:31;;;;;;;;;;;;;;;;;;5049718;28;19931;-72
2021/05/17 15:38:57;;;;;;;;;;;;;;;;;;5045588;28;20004;-74
2021/05/17 15:41:23;;;;;;;;;;;;;;;;;;5044886;28;19935;-74
2021/05/17 15:43:50;;;;;;;;;;;;;;;;;;5047405;28;19925;-72
2021/05/17 15:46:17;;;;;;;;;;;;;;;;;;5045323;28;19929;-74
2021/05/17 15:48:44;;;;;;;;;;;;;;;;;;5043759;28;19925;-71
2021/05/17 15:51:13;;;;;;;;;;;;;;;;;;5048695;28;20294;-71
2021/05/17 15:53:41;;;;;;;;;;;;;;;;;;5045955;28;20293;-75
2021/05/17 15:56:07;;;;;;;;;;;;;;;;;;5045556;28;19928;-72
2021/05/17 15:58:38;;;;;;;;;;;;;;;;;;5044500;28;19935;-73
2021/05/17 16:01:04;;;;;;;;;;;;;;;;;;5045472;28;20290;-72
2021/05/17 16:03:31;;;;;;;;;;;;;;;;;;5048667;28;20440;-71
2021/05/17 16:05:58;;;;;;;;;;;;;;;;;;5040901;28;20427;-72
2021/05/17 16:08:24;;;;;;;;;;;;;;;;;;5047614;28;20395;-73
2021/05/17 16:10:51;;;;;;;;;;;;;;;;;;5042849;28;20020;-71
2021/05/17 16:13:23;;;;;;;;;;;;;;;;;;5044273;28;20353;-73
2021/05/17 16:15:54;;;;;;;;;;;;;;;;;;5045434;28;20367;-73
2021/05/17 16:18:32;;;;;;;;;;;;;;;;;;5055550;28;19924;-74
2021/05/17 16:23:43;;;;;;;;;;;;;;;;;;5049769;28;19974;-72
2021/05/17 16:26:10;;;;;;;;;;;;;;;;;;5044826;28;19928;-74
2021/05/17 16:28:38;;;;;;;;;;;;;;;;;;5047724;28;19984;-74
2021/05/17 16:31:05;;;;;;;;;;;;;;;;;;5045605;28;20447;-74
2021/05/17 16:33:31;;;;;;;;;;;;;;;;;;5046847;28;20008;-73
2021/05/17 16:35:58;;;;;;;;;;;;;;;;;;5047460;28;19935;-73
2021/05/17 16:38:24;;;;;;;;;;;;;;;;;;5046140;28;20274;-73
2021/05/17 16:40:52;;;;;;;;;;;;;;;;;;5045766;28;19925;-74
2021/05/17 16:43:19;;;;;;;;;;;;;;;;;;5041628;28;20332;-74
2021/05/17 16:45:45;;;;;;;;;;;;;;;;;;5045117;28;20020;-73
2021/05/17 16:48:12;;;;;;;;;;;;;;;;;;5044999;28;19959;-73
2021/05/17 16:50:38;;;;;;;;;;;;;;;;;;5046067;28;20476;-72
2021/05/17 16:53:05;;;;;;;;;;;;;;;;;;5040875;28;19964;-73
2021/05/17 16:55:31;;;;;;;;;;;;;;;;;;5047313;28;19929;-72
2021/05/17 16:57:58;;;;;;;;;;;;;;;;;;5044522;28;20498;-72
2021/05/17 17:00:24;;;;;;;;;;;;;;;;;;5046737;28;19967;-72
2021/05/17 17:02:51;;;;;;;;;;;;;;;;;;5044813;28;19964;-72
2021/05/17 17:05:17;;;;;;;;;;;;;;;;;;5044337;28;19926;-71
2021/05/17 17:07:46;;;;;;;;;;;;;;;;;;5046474;28;20362;-73
2021/05/17 17:10:12;;;;;;;;;;;;;;;;;;5043992;28;20007;-72
2021/05/17 17:12:39;;;;;;;;;;;;;;;;;;5044709;28;20406;-73